Time;durP1;ratioP1;P1;durP2;ratioP2;P2;SDS_P1;SDS_P2;PMS_P1;PMS_P2;Temp;Humidity;BMP_temperature;BMP_pressure;BME280_temperature;BME280_humidity;BME280_pressure;Samples;Min_cycle;Max_cycle;Signal;HPM_P1;HPM_P2
2023/02/09 00:00:51;;;;;;;;;18.00;14.33;;;;;;;;5120926;28;21864;-69
2023/02/09 00:03:16;;;;;;;;;13.00;11.00;;;;;;;;5119102;28;22234;-69
2023/02/09 00:05:41;;;;;;;;;15.67;13.00;;;;;;;;5120942;27;12150;-68
2023/02/09 00:08:06;;;;;;;;;16.67;13.33;;;;;;;;5120976;28;10559;-69
2023/02/09 00:10:32;;;;;;;;;15.33;10.33;;;;;;;;5120854;27;13340;-69
2023/02/09 00:15:46;;;;;;;;;10.00;7.67;;;;;;;;5121314;28;11586;-69
2023/02/09 00:18:11;;;;;;;;;10.33;10.33;;;;;;;;5120747;28;22426;-69
2023/02/09 00:20:37;;;;;;;;;19.00;11.33;;;;;;;;5120425;28;23336;-69
2023/02/09 00:23:02;;;;;;;;;8.67;8.67;;;;;;;;5119147;28;11112;-69
2023/02/09 00:25:27;;;;;;;;;10.67;10.00;;;;;;;;5120165;28;23178;-69
2023/02/09 00:27:52;;;;;;;;;11.33;10.00;;;;;;;;5120494;28;23190;-69
2023/02/09 00:32:56;;;;;;;;;10.33;8.00;;;;;;;;5099247;28;22152;-80
2023/02/09 00:35:25;;;;;;;;;11.00;10.00;;;;;;;;5101442;28;8902;-81
2023/02/09 00:37:50;;;;;;;;;11.67;10.00;;;;;;;;5101205;28;21984;-83
2023/02/09 00:40:16;;;;;;;;;12.33;10.00;;;;;;;;5083457;28;9516;-83
2023/02/09 00:42:41;;;;;;;;;14.00;10.00;;;;;;;;5101727;28;9640;-82
2023/02/09 00:45:06;;;;;;;;;16.00;8.67;;;;;;;;5101855;28;8996;-83
2023/02/09 00:47:32;;;;;;;;;8.33;7.67;;;;;;;;5082771;28;24093;-83
2023/02/09 00:49:57;;;;;;;;;11.33;8.33;;;;;;;;5101182;28;23493;-81
2023/02/09 00:52:22;;;;;;;;;10.00;10.00;;;;;;;;5099932;28;22488;-82
2023/02/09 00:54:47;;;;;;;;;10.00;7.00;;;;;;;;5101125;28;21835;-82
2023/02/09 00:57:13;;;;;;;;;9.67;8.33;;;;;;;;5101186;28;16652;-81
2023/02/09 00:59:39;;;;;;;;;11.00;10.00;;;;;;;;5101444;28;22053;-82
2023/02/09 01:02:05;;;;;;;;;11.00;11.00;;;;;;;;5100698;28;22929;-75
2023/02/09 01:04:30;;;;;;;;;11.33;9.00;;;;;;;;5101094;28;8818;-77
2023/02/09 01:06:55;;;;;;;;;15.00;11.00;;;;;;;;5082082;28;22858;-76
2023/02/09 01:09:21;;;;;;;;;9.00;9.00;;;;;;;;5082009;28;24842;-78
2023/02/09 01:11:46;;;;;;;;;12.67;7.67;;;;;;;;5100877;28;22977;-76
2023/02/09 01:14:11;;;;;;;;;9.67;8.33;;;;;;;;5100709;28;22098;-77
2023/02/09 01:16:37;;;;;;;;;9.67;8.33;;;;;;;;5082019;28;22190;-77
2023/02/09 01:19:02;;;;;;;;;17.33;10.00;;;;;;;;5101053;28;8818;-77
2023/02/09 01:21:28;;;;;;;;;14.00;10.00;;;;;;;;5100171;28;23512;-77
2023/02/09 01:23:54;;;;;;;;;13.00;11.33;;;;;;;;5100824;28;9004;-78
2023/02/09 01:26:19;;;;;;;;;17.67;13.33;;;;;;;;5082008;28;11799;-78
2023/02/09 01:28:47;;;;;;;;;5.33;5.33;;;;;;;;5100790;28;10726;-76
2023/02/09 01:31:23;;;;;;;;;9.00;8.00;;;;;;;;5110963;22;26174;-69
2023/02/09 01:33:49;;;;;;;;;8.00;7.00;;;;;;;;5140389;27;11969;-71
2023/02/09 01:36:14;;;;;;;;;10.33;9.00;;;;;;;;5140789;27;8818;-70
2023/02/09 01:38:39;;;;;;;;;9.67;9.67;;;;;;;;5140287;27;21935;-70
2023/02/09 01:41:04;;;;;;;;;9.00;7.67;;;;;;;;5140392;27;22054;-70
2023/02/09 01:43:46;;;;;;;;;7.00;7.00;;;;;;;;5140927;27;9583;-70
2023/02/09 01:46:11;;;;;;;;;10.33;9.00;;;;;;;;5121675;27;13940;-69
2023/02/09 06:55:23;;;;;;;;;12.75;10.50;;;;;;;;5212406;27;71688;-76
2023/02/09 06:57:48;;;;;;;;;15.75;10.50;;;;;;;;5189326;27;22804;-78
2023/02/09 07:00:14;;;;;;;;;15.00;12.00;;;;;;;;5173428;27;13433;-73
2023/02/09 07:02:43;;;;;;;;;19.80;13.00;;;;;;;;5189626;27;13493;-72
2023/02/09 07:05:09;;;;;;;;;15.00;12.25;;;;;;;;5194925;27;13345;-79
2023/02/09 07:07:35;;;;;;;;;26.00;19.00;;;;;;;;5191569;27;13430;-78
2023/02/09 07:10:00;;;;;;;;;15.25;13.00;;;;;;;;5181556;27;13497;-79
2023/02/09 07:12:25;;;;;;;;;16.67;13.00;;;;;;;;5184056;27;13351;-78
2023/02/09 07:14:51;;;;;;;;;20.00;15.00;;;;;;;;5182026;27;13565;-78
2023/02/09 07:17:16;;;;;;;;;16.50;14.75;;;;;;;;5182688;27;13556;-79
2023/02/09 07:19:41;;;;;;;;;16.00;16.00;;;;;;;;5182244;27;13558;-78
2023/02/09 07:22:06;;;;;;;;;16.00;16.00;;;;;;;;5181003;27;13442;-76
2023/02/09 07:24:32;;;;;;;;;18.25;13.00;;;;;;;;5173607;27;13487;-75
2023/02/09 07:26:57;;;;;;;;;18.75;18.00;;;;;;;;5172809;27;14187;-72
2023/02/09 07:29:22;;;;;;;;;15.00;12.00;;;;;;;;5173073;27;13518;-71
2023/02/09 07:31:47;;;;;;;;;14.33;14.33;;;;;;;;5172883;27;13409;-70
2023/02/09 07:34:13;;;;;;;;;21.75;13.00;;;;;;;;5172843;27;13418;-70
2023/02/09 07:36:38;;;;;;;;;13.00;12.00;;;;;;;;5173563;27;14176;-70
2023/02/09 07:39:03;;;;;;;;;19.25;15.00;;;;;;;;5186424;27;13486;-69
2023/02/09 07:41:28;;;;;;;;;12.00;12.00;;;;;;;;5193528;27;14098;-68
2023/02/09 07:43:54;;;;;;;;;13.00;10.67;;;;;;;;5193476;27;14378;-70
2023/02/09 07:46:20;;;;;;;;;17.60;15.40;;;;;;;;5159635;27;13401;-70
2023/02/09 07:48:46;;;;;;;;;16.00;13.00;;;;;;;;5172520;27;13456;-70
2023/02/09 07:51:15;;;;;;;;;10.60;10.00;;;;;;;;5172526;27;13493;-69
2023/02/09 07:53:40;;;;;;;;;10.60;9.00;;;;;;;;5172254;27;13602;-69
2023/02/09 07:56:05;;;;;;;;;16.00;12.00;;;;;;;;5185618;27;16679;-69
2023/02/09 07:58:31;;;;;;;;;7.67;7.00;;;;;;;;5174169;27;23754;-70
2023/02/09 08:01:01;;;;;;;;;15.50;14.00;;;;;;;;5193555;27;22608;-70
2023/02/09 08:03:27;;;;;;;;;10.00;10.00;;;;;;;;5193030;27;23035;-72
2023/02/09 08:06:09;;;;;;;;;24.50;19.50;;;;;;;;5184584;27;13370;-72
2023/02/09 08:08:34;;;;;;;;;45.75;45.00;;;;;;;;5179368;27;13564;-73
2023/02/09 08:11:00;;;;;;;;;15.00;13.00;;;;;;;;5168436;27;13691;-72
2023/02/09 08:13:28;;;;;;;;;13.00;12.50;;;;;;;;5167944;27;13457;-69
2023/02/09 08:15:59;;;;;;;;;14.50;9.25;;;;;;;;5175181;27;14060;-68
2023/02/09 08:18:26;;;;;;;;;14.50;12.00;;;;;;;;5176179;27;22083;-69
2023/02/09 08:20:52;;;;;;;;;21.33;18.33;;;;;;;;5180928;27;16705;-70
2023/02/09 08:23:20;;;;;;;;;0.00;0.00;;;;;;;;5183343;27;13412;-72
2023/02/09 08:25:50;;;;;;;;;0.00;0.00;;;;;;;;5183282;27;23608;-72
2023/02/09 08:28:15;;;;;;;;;0.00;0.00;;;;;;;;5183818;27;8743;-71
2023/02/09 08:30:41;;;;;;;;;0.75;0.75;;;;;;;;5183718;27;8790;-69
2023/02/09 08:33:06;;;;;;;;;0.00;0.00;;;;;;;;5164690;27;10372;-67
2023/02/09 08:35:31;;;;;;;;;0.00;0.00;;;;;;;;5165225;27;8880;-69
2023/02/09 08:38:01;;;;;;;;;0.00;0.00;;;;;;;;5162881;27;8800;-69
2023/02/09 08:40:26;;;;;;;;;0.00;0.00;;;;;;;;5143653;27;8803;-69
2023/02/09 08:42:52;;;;;;;;;0.00;0.00;;;;;;;;5162537;27;8814;-69
2023/02/09 08:45:17;;;;;;;;;0.00;0.00;;;;;;;;5170166;27;8903;-69
2023/02/09 08:47:42;;;;;;;;;0.00;0.00;;;;;;;;5170783;27;9904;-70
2023/02/09 08:50:08;;;;;;;;;0.00;0.00;;;;;;;;5171353;27;8805;-68
2023/02/09 08:52:33;;;;;;;;;13.75;11.50;;;;;;;;5164682;27;9379;-69
2023/02/09 08:54:58;;;;;;;;;6.25;4.00;;;;;;;;5160862;27;22881;-69
2023/02/09 08:57:23;;;;;;;;;2.25;2.25;;;;;;;;5166006;27;23264;-69
2023/02/09 08:59:49;;;;;;;;;3.33;1.00;;;;;;;;5170851;27;12463;-70
2023/02/09 09:02:14;;;;;;;;;0.00;0.00;;;;;;;;5173498;27;11447;-68
2023/02/09 09:04:39;;;;;;;;;5.67;4.67;;;;;;;;5178262;27;10564;-68
2023/02/09 09:07:04;;;;;;;;;3.67;3.67;;;;;;;;5181370;27;11688;-68
2023/02/09 09:09:30;;;;;;;;;7.00;7.00;;;;;;;;5181217;27;8807;-68
2023/02/09 09:11:55;;;;;;;;;10.00;6.00;;;;;;;;5182243;27;11619;-67
2023/02/09 09:14:20;;;;;;;;;7.00;6.00;;;;;;;;5181134;27;22415;-68
2023/02/09 09:16:46;;;;;;;;;6.67;6.00;;;;;;;;5165422;27;16528;-67
2023/02/09 09:19:11;;;;;;;;;13.00;9.00;;;;;;;;5161614;27;9031;-68
2023/02/09 09:21:36;;;;;;;;;0.00;0.00;;;;;;;;5161269;27;22409;-68
2023/02/09 09:24:01;;;;;;;;;6.00;4.00;;;;;;;;5166278;27;22138;-68
2023/02/09 09:26:27;;;;;;;;;12.33;7.00;;;;;;;;5176476;27;9892;-69
2023/02/09 09:28:52;;;;;;;;;6.67;6.00;;;;;;;;5181855;27;23457;-68
2023/02/09 09:31:18;;;;;;;;;4.00;3.33;;;;;;;;5181837;27;21723;-72
2023/02/09 09:33:44;;;;;;;;;6.00;6.00;;;;;;;;5182067;27;11683;-72
2023/02/09 09:36:10;;;;;;;;;0.00;0.00;;;;;;;;5182486;27;11780;-70
2023/02/09 09:38:36;;;;;;;;;8.33;6.00;;;;;;;;5178796;27;8812;-69
2023/02/09 09:41:02;;;;;;;;;5.33;5.33;;;;;;;;5169920;27;10844;-70
2023/02/09 09:43:36;;;;;;;;;6.67;6.00;;;;;;;;5171590;27;11450;-69
2023/02/09 09:46:02;;;;;;;;;11.00;6.00;;;;;;;;5168895;27;13144;-70
2023/02/09 09:48:32;;;;;;;;;10.00;8.33;;;;;;;;5170703;27;16962;-68
2023/02/09 09:51:01;;;;;;;;;8.33;8.00;;;;;;;;5171609;27;10766;-69
2023/02/09 09:53:31;;;;;;;;;8.33;5.33;;;;;;;;5169851;27;21877;-69
2023/02/09 09:56:01;;;;;;;;;8.33;6.00;;;;;;;;5174674;27;8813;-69
2023/02/09 09:58:27;;;;;;;;;9.33;6.00;;;;;;;;5171361;27;8811;-69
2023/02/09 10:00:53;;;;;;;;;9.00;4.00;;;;;;;;5169457;27;8899;-69
2023/02/09 10:03:20;;;;;;;;;6.00;6.00;;;;;;;;5171531;27;10429;-70
2023/02/09 10:05:46;;;;;;;;;9.67;7.00;;;;;;;;5170865;27;9576;-69
2023/02/09 10:08:28;;;;;;;;;9.33;6.33;;;;;;;;5169611;27;10566;-70
2023/02/09 10:11:02;;;;;;;;;1.00;0.00;;;;;;;;5171860;27;10702;-68
2023/02/09 10:13:54;;;;;;;;;0.00;0.00;;;;;;;;5166803;27;11948;-69
2023/02/09 10:16:19;;;;;;;;;6.00;3.50;;;;;;;;5171373;27;8821;-72
2023/02/09 10:18:48;;;;;;;;;0.50;0.50;;;;;;;;5181304;27;11264;-71
2023/02/09 10:21:14;;;;;;;;;0.67;0.00;;;;;;;;5181102;27;10222;-69
2023/02/09 10:23:49;;;;;;;;;7.75;6.00;;;;;;;;5177414;27;9621;-70
2023/02/09 10:26:14;;;;;;;;;7.00;7.00;;;;;;;;5179129;27;10706;-72
2023/02/09 10:28:41;;;;;;;;;7.67;7.67;;;;;;;;5169313;27;9547;-70
2023/02/09 10:31:11;;;;;;;;;7.00;6.67;;;;;;;;5170188;27;8782;-71
2023/02/09 10:33:40;;;;;;;;;7.00;7.00;;;;;;;;5170841;27;9804;-71
2023/02/09 10:36:08;;;;;;;;;12.00;9.00;;;;;;;;5169550;27;8975;-70
2023/02/09 10:38:38;;;;;;;;;51.00;44.33;;;;;;;;5169205;27;22994;-70
2023/02/09 10:41:07;;;;;;;;;15.33;13.33;;;;;;;;5171281;27;23161;-71
2023/02/09 10:43:33;;;;;;;;;12.67;12.67;;;;;;;;5169393;27;12665;-70
2023/02/09 10:46:00;;;;;;;;;10.67;7.00;;;;;;;;5179514;27;11551;-70
2023/02/09 10:48:26;;;;;;;;;6.00;4.00;;;;;;;;5165679;27;22048;-69
2023/02/09 10:50:55;;;;;;;;;9.67;9.67;;;;;;;;5160178;27;23197;-70
2023/02/09 10:53:25;;;;;;;;;15.33;9.00;;;;;;;;5168098;27;11760;-70
2023/02/09 10:55:57;;;;;;;;;11.33;9.67;;;;;;;;5169113;27;21993;-70
2023/02/09 10:58:26;;;;;;;;;3.00;3.00;;;;;;;;5178316;27;10573;-69
2023/02/09 11:01:04;;;;;;;;;12.33;8.33;;;;;;;;5180293;27;21970;-70
2023/02/09 11:03:29;;;;;;;;;20.67;12.33;;;;;;;;5161738;27;22126;-69
2023/02/09 11:05:57;;;;;;;;;15.67;9.33;;;;;;;;5159726;27;23146;-70
2023/02/09 11:08:22;;;;;;;;;;;;;;;;;;5161968;27;23216;-71
2023/02/09 11:10:47;;;;;;;;;;;;;;;;;;5169106;27;21403;-71
2023/02/09 11:13:13;;;;;;;;;;;;;;;;;;5173474;27;7532;-73
2023/02/09 11:15:38;;;;;;;;;;;;;;;;;;5174460;27;7539;-72
2023/02/09 11:18:03;;;;;;;;;;;;;;;;;;5171807;27;7567;-72
2023/02/09 11:20:34;;;;;;;;;13.00;11.50;;;;;;;;5172165;27;7571;-72
2023/02/09 11:23:18;;;;;;;;;15.00;14.50;;;;;;;;5168039;27;23842;-72
2023/02/09 11:25:57;;;;;;;;;13.50;13.00;;;;;;;;5168281;27;10639;-72
2023/02/09 11:28:41;;;;;;;;;15.50;13.50;;;;;;;;5167884;27;12763;-72
2023/02/09 11:31:24;;;;;;;;;15.50;12.00;;;;;;;;5168511;27;11625;-72
2023/02/09 11:34:02;;;;;;;;;17.25;12.00;;;;;;;;5151000;27;9809;-74
2023/02/09 11:36:30;;;;;;;;;27.00;25.80;;;;;;;;5163648;27;13491;-71
2023/02/09 11:39:04;;;;;;;;;18.80;18.20;;;;;;;;5160808;27;14155;-72
2023/02/09 11:44:30;;;;;;;;;17.60;17.00;;;;;;;;5169798;27;14169;-72
2023/02/09 11:47:04;;;;;;;;;21.75;17.00;;;;;;;;5169454;27;13458;-71
2023/02/09 11:49:35;;;;;;;;;20.60;18.80;;;;;;;;5168955;27;13452;-70
2023/02/09 11:52:02;;;;;;;;;16.80;14.80;;;;;;;;5167964;27;13390;-71
2023/02/09 11:54:31;;;;;;;;;22.80;19.20;;;;;;;;5168325;27;13404;-70
2023/02/09 11:57:00;;;;;;;;;22.20;17.40;;;;;;;;5169126;27;13540;-70
2023/02/09 11:59:40;;;;;;;;;25.00;22.50;;;;;;;;5168229;27;13489;-70
2023/02/09 12:02:18;;;;;;;;;23.40;18.40;;;;;;;;5167894;27;14025;-71
2023/02/09 12:04:53;;;;;;;;;19.00;16.40;;;;;;;;5168007;27;13597;-70
2023/02/09 12:07:41;;;;;;;;;16.00;15.00;;;;;;;;5168922;27;13455;-71
2023/02/09 12:10:09;;;;;;;;;16.00;16.00;;;;;;;;5164849;27;13392;-69
2023/02/09 12:12:40;;;;;;;;;21.60;15.60;;;;;;;;5158761;27;13480;-71
2023/02/09 12:15:35;;;;;;;;;19.25;17.75;;;;;;;;5148203;27;16040;-73
2023/02/09 12:18:00;;;;;;;;;18.00;15.00;;;;;;;;5092930;28;14882;-71
2023/02/09 12:20:37;;;;;;;;;15.00;15.00;;;;;;;;5093687;28;13616;-73
2023/02/09 12:23:06;;;;;;;;;13.60;13.60;;;;;;;;5093176;28;13574;-77
2023/02/09 12:25:32;;;;;;;;;16.60;14.80;;;;;;;;5076892;28;14125;-73
2023/02/09 12:28:07;;;;;;;;;20.75;18.00;;;;;;;;5094177;28;14460;-71
2023/02/09 12:30:41;;;;;;;;;17.75;15.00;;;;;;;;5093241;28;14939;-71
2023/02/09 12:33:30;;;;;;;;;21.20;18.20;;;;;;;;5094228;28;13585;-70
2023/02/09 12:36:04;;;;;;;;;15.50;14.00;;;;;;;;5079294;28;15510;-72
2023/02/09 12:38:41;;;;;;;;;22.50;18.00;;;;;;;;5093045;28;13734;-74
2023/02/09 12:41:07;;;;;;;;;21.00;15.50;;;;;;;;5075338;28;14453;-75
2023/02/09 12:43:34;;;;;;;;;25.50;22.00;;;;;;;;5074980;28;15366;-74
2023/02/09 12:46:18;;;;;;;;;21.25;17.00;;;;;;;;5092290;28;13462;-76
2023/02/09 12:49:07;;;;;;;;;21.00;15.75;;;;;;;;5074756;28;13422;-72
2023/02/09 12:51:38;;;;;;;;;19.50;18.25;;;;;;;;5091332;28;14211;-73
2023/02/09 12:54:22;;;;;;;;;15.00;14.50;;;;;;;;5099509;27;13422;-73
2023/02/09 12:56:48;;;;;;;;;15.80;15.80;;;;;;;;5167845;27;13538;-72
2023/02/09 12:59:15;;;;;;;;;16.00;14.00;;;;;;;;5166163;27;13619;-73
2023/02/09 13:01:59;;;;;;;;;18.50;14.00;;;;;;;;5167584;27;13373;-72
2023/02/09 13:04:24;;;;;;;;;22.20;17.00;;;;;;;;5149098;27;14189;-74
2023/02/09 13:06:54;;;;;;;;;17.75;15.75;;;;;;;;5157764;27;13404;-74
2023/02/09 13:09:24;;;;;;;;;17.25;14.00;;;;;;;;5138955;27;14478;-74
2023/02/09 13:11:54;;;;;;;;;17.00;17.00;;;;;;;;5157973;27;14406;-74
2023/02/09 13:14:21;;;;;;;;;20.80;20.00;;;;;;;;5157702;27;14276;-76
2023/02/09 13:17:18;;;;;;;;;13.40;13.40;;;;;;;;5169433;27;13435;-73
2023/02/09 13:19:49;;;;;;;;;16.33;9.33;;;;;;;;5123183;27;14033;-75
2023/02/09 13:22:33;;;;;;;;;10.00;9.33;;;;;;;;5152073;27;24421;-75
2023/02/09 13:25:15;;;;;;;;;8.33;8.33;;;;;;;;5172406;27;8899;-74
2023/02/09 13:27:45;;;;;;;;;13.67;10.00;;;;;;;;5171184;27;23655;-75
2023/02/09 13:30:24;;;;;;;;;9.00;9.00;;;;;;;;5150500;27;25271;-74
2023/02/09 13:32:55;;;;;;;;;9.67;8.33;;;;;;;;5169993;27;24075;-75
2023/02/09 13:35:26;;;;;;;;;9.67;9.67;;;;;;;;5169641;27;10974;-73
2023/02/09 13:37:53;;;;;;;;;10.00;9.00;;;;;;;;5170135;27;9134;-74
2023/02/09 13:40:27;;;;;;;;;18.33;10.00;;;;;;;;5171350;27;22463;-74
2023/02/09 13:43:01;;;;;;;;;10.00;10.00;;;;;;;;5180138;27;21889;-74
2023/02/09 13:45:27;;;;;;;;;11.67;8.33;;;;;;;;5182322;27;8806;-73
2023/02/09 13:47:53;;;;;;;;;10.67;7.67;;;;;;;;5181824;27;22048;-73
2023/02/09 13:50:20;;;;;;;;;11.33;9.33;;;;;;;;5173073;27;10829;-74
2023/02/09 13:52:46;;;;;;;;;9.67;7.00;;;;;;;;5147221;27;11293;-74
2023/02/09 13:55:19;;;;;;;;;12.00;9.00;;;;;;;;5160551;27;22253;-73
2023/02/09 13:57:48;;;;;;;;;9.00;8.33;;;;;;;;5160378;27;21890;-73
2023/02/09 14:00:19;;;;;;;;;13.00;8.33;;;;;;;;5159989;27;22371;-74
2023/02/09 14:03:10;;;;;;;;;3.00;0.00;;;;;;;;5168023;27;16747;-77
2023/02/09 14:05:38;;;;;;;;;12.00;9.00;;;;;;;;5170565;27;22054;-76
2023/02/09 14:08:04;;;;;;;;;10.00;6.67;;;;;;;;5162700;27;22159;-75
2023/02/09 14:10:32;;;;;;;;;9.00;5.33;;;;;;;;5160747;27;10725;-75
2023/02/09 14:13:03;;;;;;;;;12.00;9.67;;;;;;;;5162665;27;22119;-74
2023/02/09 14:18:20;;;;;;;;;10.00;9.00;;;;;;;;5170250;27;10450;-74
2023/02/09 14:20:57;;;;;;;;;10.67;10.33;;;;;;;;5168373;27;10844;-74
2023/02/09 14:23:23;;;;;;;;;9.00;7.00;;;;;;;;5167983;27;21912;-74
2023/02/09 14:26:00;;;;;;;;;6.00;4.00;;;;;;;;5170236;27;22842;-74
2023/02/09 14:28:25;;;;;;;;;8.67;8.67;;;;;;;;5171730;27;10294;-74
2023/02/09 14:30:51;;;;;;;;;11.33;10.00;;;;;;;;5169710;27;11909;-75
2023/02/09 14:33:21;;;;;;;;;8.67;7.67;;;;;;;;5168404;27;22673;-73
2023/02/09 14:35:52;;;;;;;;;15.00;12.00;;;;;;;;5169987;27;23866;-76
2023/02/09 14:38:36;;;;;;;;;8.33;8.33;;;;;;;;5169697;27;23047;-74
2023/02/09 14:41:37;;;;;;;;;10.67;9.00;;;;;;;;5170347;27;22818;-74
2023/02/09 14:44:16;;;;;;;;;12.67;9.00;;;;;;;;5084645;28;22377;-73
2023/02/09 14:46:46;;;;;;;;;9.00;9.00;;;;;;;;5086266;28;8820;-72
2023/02/09 14:49:11;;;;;;;;;12.00;9.67;;;;;;;;5079630;28;17114;-73
2023/02/09 14:51:36;;;;;;;;;12.33;10.67;;;;;;;;5078926;28;23286;-74
2023/02/09 14:54:02;;;;;;;;;7.00;7.00;;;;;;;;5067402;28;22201;-73
2023/02/09 14:56:33;;;;;;;;;15.33;15.33;;;;;;;;5082968;28;22804;-73
2023/02/09 14:58:58;;;;;;;;;15.67;10.00;;;;;;;;5083079;28;24235;-73
2023/02/09 15:01:24;;;;;;;;;15.33;9.67;;;;;;;;5085198;28;10451;-73
2023/02/09 15:03:49;;;;;;;;;3.33;1.67;;;;;;;;5082635;28;22337;-73
2023/02/09 15:06:14;;;;;;;;;12.33;10.67;;;;;;;;5083086;28;22018;-76
2023/02/09 15:08:40;;;;;;;;;12.67;12.67;;;;;;;;5084146;28;22899;-74
2023/02/09 15:12:03;;;;;;;;;14.33;12.33;;;;;;;;5084316;28;9880;-73
2023/02/09 15:13:55;;;;;;;;;15.00;12.00;;;;;;;;5089241;28;12079;-74
2023/02/09 15:16:21;;;;;;;;;12.00;9.67;;;;;;;;5091673;28;12932;-72
2023/02/09 15:18:46;;;;;;;;;10.00;10.00;;;;;;;;5151054;27;22154;-76
2023/02/09 15:21:11;;;;;;;;;16.00;13.00;;;;;;;;5163106;27;22555;-74
2023/02/09 15:23:36;;;;;;;;;13.33;13.33;;;;;;;;5150207;27;8813;-70
2023/02/09 15:26:02;;;;;;;;;11.67;11.67;;;;;;;;5174454;27;11508;-70
2023/02/09 15:28:27;;;;;;;;;13.67;10.00;;;;;;;;5172096;27;11494;-70
2023/02/09 15:30:54;;;;;;;;;13.33;12.00;;;;;;;;5172471;27;11867;-69
2023/02/09 15:33:19;;;;;;;;;10.00;9.00;;;;;;;;5171459;27;10192;-69
2023/02/09 15:35:44;;;;;;;;;14.67;13.00;;;;;;;;5172776;27;22067;-69
2023/02/09 15:38:12;;;;;;;;;12.33;10.00;;;;;;;;5170834;27;23455;-69
2023/02/09 15:48:46;;;;;;;;;14.33;12.00;;;;;;;;5168845;27;8891;-74
2023/02/09 15:51:14;;;;;;;;;11.33;11.33;;;;;;;;5152693;27;8940;-74
2023/02/09 15:53:40;;;;;;;;;11.33;11.33;;;;;;;;5172861;27;11979;-76
2023/02/09 15:56:06;;;;;;;;;16.00;12.00;;;;;;;;5172988;27;8869;-72
2023/02/09 15:58:34;;;;;;;;;16.67;14.33;;;;;;;;5171190;27;11733;-73
2023/02/09 16:00:59;;;;;;;;;12.00;12.00;;;;;;;;5161101;27;10751;-72
2023/02/09 16:03:24;;;;;;;;;18.33;16.67;;;;;;;;5170892;27;11487;-78
2023/02/09 16:05:54;;;;;;;;;11.67;10.67;;;;;;;;5166011;27;11802;-75
2023/02/09 16:08:21;;;;;;;;;18.00;16.00;;;;;;;;5163029;27;10607;-74
2023/02/09 16:10:47;;;;;;;;;17.33;13.00;;;;;;;;5159253;27;12129;-78
2023/02/09 16:13:13;;;;;;;;;19.67;13.00;;;;;;;;5162561;27;10470;-75
2023/02/09 16:15:38;;;;;;;;;5.33;3.00;;;;;;;;5171883;27;9426;-76
2023/02/09 16:18:03;;;;;;;;;10.67;10.67;;;;;;;;5183443;27;22708;-77
2023/02/09 16:20:30;;;;;;;;;16.00;13.00;;;;;;;;5182084;27;23005;-73
2023/02/09 16:22:56;;;;;;;;;14.33;12.33;;;;;;;;5182901;27;11446;-74
2023/02/09 16:25:23;;;;;;;;;10.67;10.00;;;;;;;;5182363;27;11586;-76
2023/02/09 16:27:49;;;;;;;;;18.67;12.33;;;;;;;;5182392;27;13042;-74
2023/02/09 16:30:17;;;;;;;;;10.67;10.67;;;;;;;;5179527;27;11721;-74
2023/02/09 16:32:43;;;;;;;;;13.67;12.00;;;;;;;;5182701;27;11838;-73
2023/02/09 16:35:08;;;;;;;;;15.00;13.00;;;;;;;;5179148;27;11673;-73
2023/02/09 16:37:35;;;;;;;;;13.00;13.00;;;;;;;;5182894;27;10608;-73
2023/02/09 16:40:00;;;;;;;;;20.33;17.33;;;;;;;;5164035;27;10435;-74
2023/02/09 16:42:28;;;;;;;;;11.00;10.67;;;;;;;;5162301;27;15610;-73
2023/02/09 16:44:54;;;;;;;;;16.00;15.33;;;;;;;;5181887;27;13718;-69
2023/02/09 16:47:21;;;;;;;;;17.33;15.33;;;;;;;;5172838;27;12910;-75
2023/02/09 16:49:56;;;;;;;;;13.67;13.67;;;;;;;;5182540;27;10531;-73
2023/02/09 16:52:24;;;;;;;;;18.33;12.00;;;;;;;;5180955;27;11672;-76
2023/02/09 16:54:54;;;;;;;;;18.00;16.00;;;;;;;;5170419;27;13075;-79
2023/02/09 16:57:22;;;;;;;;;15.33;15.33;;;;;;;;5170288;27;9868;-73
2023/02/09 16:59:47;;;;;;;;;18.67;13.00;;;;;;;;5171891;27;11811;-73
2023/02/09 17:02:33;;;;;;;;;17.33;13.67;;;;;;;;5169905;27;11518;-75
2023/02/09 17:05:00;;;;;;;;;14.00;12.00;;;;;;;;5152359;27;14131;-74
2023/02/09 17:07:30;;;;;;;;;15.67;13.00;;;;;;;;5169079;27;11777;-71
2023/02/09 17:09:56;;;;;;;;;10.00;10.00;;;;;;;;5170751;27;10708;-74
2023/02/09 17:12:21;;;;;;;;;18.00;13.00;;;;;;;;5169726;27;10539;-73
2023/02/09 17:14:46;;;;;;;;;21.00;17.33;;;;;;;;5171038;27;8854;-73
2023/02/09 17:17:16;;;;;;;;;18.67;16.67;;;;;;;;5169180;27;13888;-74
2023/02/09 17:19:41;;;;;;;;;13.67;13.67;;;;;;;;5169385;27;13507;-76
2023/02/09 17:22:10;;;;;;;;;39.75;31.75;;;;;;;;5172110;27;8827;-74
2023/02/09 17:24:36;;;;;;;;;37.67;27.67;;;;;;;;5171315;27;13767;-74
2023/02/09 17:27:01;;;;;;;;;21.33;16.67;;;;;;;;5171563;27;13022;-73
2023/02/09 17:29:28;;;;;;;;;12.33;7.00;;;;;;;;5168746;27;13706;-74
2023/02/09 17:31:54;;;;;;;;;18.67;16.00;;;;;;;;5173775;27;23208;-73
2023/02/09 17:34:25;;;;;;;;;18.00;13.00;;;;;;;;5176129;27;22141;-74
2023/02/09 17:36:50;;;;;;;;;11.33;10.67;;;;;;;;5171188;27;10410;-74
2023/02/09 17:39:17;;;;;;;;;23.00;15.33;;;;;;;;5165666;27;11560;-73
2023/02/09 17:41:45;;;;;;;;;11.33;9.67;;;;;;;;5174602;27;13504;-73
2023/02/09 17:44:10;;;;;;;;;18.00;15.00;;;;;;;;5181566;27;24362;-73
2023/02/09 17:46:36;;;;;;;;;16.00;13.00;;;;;;;;5178655;27;22261;-72
2023/02/09 17:49:01;;;;;;;;;18.33;12.67;;;;;;;;5179839;27;8927;-74
2023/02/09 17:51:33;;;;;;;;;18.33;15.67;;;;;;;;5176149;27;11561;-75
2023/02/09 17:53:58;;;;;;;;;19.33;16.00;;;;;;;;5162812;27;9416;-75
2023/02/09 17:56:24;;;;;;;;;18.00;12.00;;;;;;;;5181906;27;11503;-73
2023/02/09 17:58:49;;;;;;;;;16.33;13.00;;;;;;;;5154142;27;13012;-71
2023/02/09 18:01:21;;;;;;;;;16.00;11.33;;;;;;;;5152300;27;12779;-73
2023/02/09 18:03:47;;;;;;;;;17.33;13.00;;;;;;;;5171249;27;10743;-71
2023/02/09 18:06:14;;;;;;;;;17.67;15.00;;;;;;;;5171749;27;12104;-72
2023/02/09 18:08:42;;;;;;;;;16.67;13.00;;;;;;;;5170872;27;10218;-72
2023/02/09 18:11:12;;;;;;;;;17.33;15.33;;;;;;;;5169316;27;9201;-72
2023/02/09 18:13:38;;;;;;;;;27.00;18.00;;;;;;;;5169247;27;11778;-72
2023/02/09 18:16:03;;;;;;;;;24.67;21.00;;;;;;;;5173016;27;13420;-70
2023/02/09 18:18:28;;;;;;;;;16.67;15.67;;;;;;;;5167779;27;11563;-72
2023/02/09 18:20:53;;;;;;;;;16.67;13.00;;;;;;;;5166857;27;14069;-75
2023/02/09 18:23:19;;;;;;;;;15.00;15.00;;;;;;;;5179687;27;8953;-71
2023/02/09 18:25:46;;;;;;;;;19.00;14.67;;;;;;;;5175134;27;10870;-71
2023/02/09 18:28:13;;;;;;;;;18.33;16.00;;;;;;;;5180606;27;11823;-69
2023/02/09 18:30:38;;;;;;;;;15.67;15.67;;;;;;;;5178623;27;11592;-70
2023/02/09 18:33:04;;;;;;;;;15.00;12.00;;;;;;;;5180307;27;12741;-70
2023/02/09 18:35:37;;;;;;;;;15.67;15.67;;;;;;;;5179575;27;10930;-70
2023/02/09 18:38:03;;;;;;;;;16.00;16.00;;;;;;;;5180769;27;10594;-70
2023/02/09 18:40:30;;;;;;;;;11.33;10.67;;;;;;;;5178742;27;11910;-75
2023/02/09 18:42:59;;;;;;;;;18.67;14.33;;;;;;;;5180989;27;11627;-77
2023/02/09 18:45:24;;;;;;;;;21.33;15.00;;;;;;;;5179164;27;11841;-76
2023/02/09 18:47:51;;;;;;;;;19.00;15.33;;;;;;;;5177928;27;13479;-70
2023/02/09 18:50:17;;;;;;;;;23.33;21.00;;;;;;;;5177289;27;13671;-71
2023/02/09 18:52:45;;;;;;;;;20.33;13.00;;;;;;;;5178149;27;14001;-73
2023/02/09 18:55:10;;;;;;;;;19.67;16.67;;;;;;;;5180162;27;9756;-72
2023/02/09 18:57:35;;;;;;;;;17.00;13.00;;;;;;;;5180564;27;13757;-72
2023/02/09 19:00:01;;;;;;;;;16.67;14.33;;;;;;;;5180768;27;12683;-71
2023/02/09 19:02:26;;;;;;;;;6.00;5.50;;;;;;;;5160618;27;13763;-71
2023/02/09 19:04:51;;;;;;;;;23.00;21.00;;;;;;;;5179993;27;22708;-70
2023/02/09 19:07:17;;;;;;;;;18.00;17.33;;;;;;;;5179792;27;22976;-72
2023/02/09 19:09:44;;;;;;;;;22.33;18.33;;;;;;;;5168169;27;16865;-72
2023/02/09 19:12:10;;;;;;;;;19.00;12.33;;;;;;;;5178267;27;13158;-73
2023/02/09 19:14:39;;;;;;;;;16.00;12.67;;;;;;;;5180237;27;12710;-73
2023/02/09 19:17:05;;;;;;;;;21.67;15.00;;;;;;;;5175992;27;11593;-71
2023/02/09 19:19:30;;;;;;;;;10.67;10.00;;;;;;;;5180275;27;13675;-71
2023/02/09 19:21:56;;;;;;;;;19.00;13.67;;;;;;;;5178214;27;10793;-71
2023/02/09 19:24:22;;;;;;;;;18.00;15.00;;;;;;;;5180076;27;11561;-71
2023/02/09 19:26:47;;;;;;;;;17.50;13.75;;;;;;;;5179840;27;11508;-73
2023/02/09 19:29:13;;;;;;;;;;;;;;;;;;5181207;27;12656;-72
2023/02/09 19:31:38;;;;;;;;;;;;;;;;;;5176020;27;22959;-71
2023/02/09 19:34:03;;;;;;;;;22.00;18.00;;;;;;;;5173201;27;8251;-70
2023/02/09 19:36:28;;;;;;;;;25.67;22.67;;;;;;;;5175921;27;24346;-70
2023/02/09 19:38:54;;;;;;;;;23.50;20.00;;;;;;;;5178960;27;12345;-71
2023/02/09 19:41:22;;;;;;;;;30.25;28.00;;;;;;;;5176659;27;11659;-70
2023/02/09 19:43:47;;;;;;;;;24.75;21.50;;;;;;;;5179807;27;12825;-72
2023/02/09 19:46:12;;;;;;;;;34.00;28.25;;;;;;;;5179409;27;13858;-70
2023/02/09 19:48:40;;;;;;;;;27.00;27.00;;;;;;;;5175739;27;13710;-70
2023/02/09 19:51:07;;;;;;;;;31.00;25.00;;;;;;;;5168619;27;13610;-69
2023/02/09 19:53:32;;;;;;;;;26.00;24.75;;;;;;;;5165427;27;10482;-69
2023/02/09 19:55:58;;;;;;;;;33.75;28.00;;;;;;;;5173869;27;13549;-70
2023/02/09 19:58:23;;;;;;;;;46.33;33.67;;;;;;;;5168719;27;13356;-69
2023/02/09 20:00:49;;;;;;;;;44.50;34.00;;;;;;;;5162634;27;13935;-69